Duncanville, Illinois
Current Conditions -  °F | °C
As of 2:35 AM on Friday 28 Nov 2014 (Local Time) from KRSV Reporting Station
Overcast Overcast  
Wind Chill: 22°   Ceiling: 10000
Heat Index: 22°   Visibility: 10mi
Dew Point: 18°   Wind: 3mph
Humidity: 83%   Direction: 230°SW
Pressure: 30.44"   Gusts: NA
Location:  39.0131°N, 87.7657°W
Report Text: KRSV 280835Z AUTO 23003KT 10SM OVC100 M05/M08 A3044 RMK AO2 T10551080
Loading
Personal Weather Stations






























Interactive Weather Map New forecast layout! Learn more

10-Day Weather Forecast

Advertisements
Track Severe Weather on mobile